Time;durP1;ratioP1;P1;durP2;ratioP2;P2;SDS_P1;SDS_P2;PMS_P1;PMS_P2;Temp;Humidity;BMP_temperature;BMP_pressure;BME280_temperature;BME280_humidity;BME280_pressure;Samples;Min_cycle;Max_cycle;Signal;HPM_P1;HPM_P2
2021/08/07 00:02:20;;;;;;;2.38;1.10;;;;;;;16.03;78.14;98536.03;5077157;28;20044;-44
2021/08/07 00:04:47;;;;;;;1.73;0.90;;;;;;;16.04;78.18;98537.59;5075816;28;22909;-49
2021/08/07 00:07:14;;;;;;;1.95;1.15;;;;;;;16.06;78.21;98537.16;5074857;28;20051;-44
2021/08/07 00:09:41;;;;;;;2.65;1.25;;;;;;;15.98;78.48;98539.34;5073960;28;20037;-43
2021/08/07 00:12:07;;;;;;;2.00;1.48;;;;;;;15.96;78.70;98535.41;5076804;28;20234;-45
2021/08/07 00:14:34;;;;;;;1.55;1.30;;;;;;;15.91;78.97;98539.50;5076792;28;20055;-46
2021/08/07 00:17:01;;;;;;;2.47;1.60;;;;;;;15.88;79.13;98534.78;5072022;28;20474;-51
2021/08/07 00:19:29;;;;;;;2.15;1.40;;;;;;;15.90;79.12;98532.34;5075618;28;20050;-47
2021/08/07 00:21:56;;;;;;;5.15;2.00;;;;;;;15.91;79.20;98539.50;5076604;28;20036;-43
2021/08/07 00:24:23;;;;;;;3.13;1.80;;;;;;;15.87;79.34;98541.59;5074751;28;20485;-43
2021/08/07 00:26:51;;;;;;;4.80;2.53;;;;;;;15.88;79.41;98540.38;5074786;28;20037;-47
2021/08/07 00:29:18;;;;;;;2.47;2.28;;;;;;;15.83;79.59;98549.25;5076753;28;20058;-45
2021/08/07 00:31:45;;;;;;;3.00;2.72;;;;;;;15.83;79.71;98549.25;5080445;28;20047;-47
2021/08/07 00:34:11;;;;;;;2.92;2.30;;;;;;;15.82;79.88;98542.09;5078760;28;20056;-48
2021/08/07 00:36:40;;;;;;;5.57;2.65;;;;;;;15.81;80.25;98540.53;5079789;28;20040;-44
2021/08/07 00:39:07;;;;;;;5.57;2.70;;;;;;;15.82;79.99;98540.09;5084264;28;20063;-43
2021/08/07 00:41:34;;;;;;;2.85;2.50;;;;;;;15.87;80.16;98543.59;5087036;28;20055;-44
2021/08/07 00:44:00;;;;;;;3.28;2.95;;;;;;;15.86;80.33;98537.22;5085540;28;21405;-45
2021/08/07 00:46:27;;;;;;;5.05;3.85;;;;;;;15.86;80.43;98542.78;5083492;28;20515;-43
2021/08/07 00:48:54;;;;;;;4.07;3.63;;;;;;;15.87;80.40;98538.78;5086047;28;20125;-44
2021/08/07 00:51:21;;;;;;;5.32;3.92;;;;;;;15.89;80.56;98538.34;5087208;28;20039;-45
2021/08/07 00:53:48;;;;;;;9.10;4.65;;;;;;;15.82;80.87;98528.16;5086737;28;20048;-45
2021/08/07 00:56:15;;;;;;;5.20;4.47;;;;;;;15.82;80.93;98533.72;5084164;28;20055;-47
2021/08/07 00:58:42;;;;;;;5.70;4.70;;;;;;;15.79;81.34;98540.97;5085983;28;20663;-44
2021/08/07 01:01:13;;;;;;;6.25;4.50;;;;;;;15.82;81.30;98537.31;5085271;28;20055;-46
2021/08/07 01:03:45;;;;;;;5.55;4.00;;;;;;;15.84;81.36;98532.06;5086664;28;20097;-43
2021/08/07 01:06:17;;;;;;;;;;;;;;;15.82;81.95;98530.94;5085144;28;21194;-48
2021/08/07 01:08:52;;;;;;;;;;;;;;;15.79;81.64;98538.19;5085115;28;19924;-48
2021/08/07 01:11:25;;;;;;;5.10;4.30;;;;;;;15.81;81.17;98534.94;5086961;28;20005;-47
2021/08/07 01:13:57;;;;;;;4.35;3.95;;;;;;;15.79;81.20;98524.22;5087454;28;20050;-43
2021/08/07 01:16:28;;;;;;;5.45;4.05;;;;;;;15.82;81.19;98528.16;5083965;28;20101;-45
2021/08/07 01:18:57;;;;;;;5.83;4.07;;;;;;;15.84;81.22;98525.69;5085419;28;20172;-47
2021/08/07 01:21:29;;;;;;;6.72;3.72;;;;;;;15.81;81.54;98523.78;5087438;28;22624;-46
2021/08/07 01:24:02;;;;;;;4.53;3.75;;;;;;;15.83;81.57;98527.69;5086869;28;20148;-44
2021/08/07 01:26:48;;;;;;;6.78;4.78;;;;;;;15.86;81.80;98526.03;5085995;28;20059;-43
2021/08/07 01:29:16;;;;;;;4.72;4.25;;;;;;;15.89;81.52;98522.41;5086786;28;20040;-43
2021/08/07 01:31:47;;;;;;;5.35;4.25;;;;;;;15.88;81.75;98526.41;5085434;28;20564;-44
2021/08/07 01:34:16;;;;;;;8.75;5.10;;;;;;;15.91;81.84;98525.56;5086414;28;20060;-47
2021/08/07 01:36:47;;;;;;;5.55;5.05;;;;;;;15.95;81.78;98526.25;5084571;28;20443;-45
2021/08/07 01:39:15;;;;;;;4.63;4.18;;;;;;;15.98;81.83;98527.38;5085077;28;20047;-42
2021/08/07 01:41:43;;;;;;;5.95;4.55;;;;;;;15.99;81.82;98529.72;5086711;28;20059;-46
2021/08/07 01:44:10;;;;;;;6.93;5.45;;;;;;;16.04;81.73;98536.81;5086475;28;20054;-44
2021/08/07 01:47:19;;;;;;;7.55;4.82;;;;;;;16.03;82.09;98524.84;5083648;28;20051;-45
2021/08/07 01:49:53;;;;;;;7.63;4.93;;;;;;;15.96;81.99;98524.25;5042948;28;20063;-44
2021/08/07 01:52:27;;;;;;;8.18;4.82;;;;;;;15.97;82.16;98523.78;5083222;28;20040;-44
2021/08/07 01:55:20;;;;;;;7.40;4.28;;;;;;;15.98;81.96;98528.16;5080499;28;20055;-44
2021/08/07 01:58:06;;;;;;;9.60;5.78;;;;;;;15.96;82.80;98530.63;5082900;28;20805;-49
2021/08/07 02:00:38;;;;;;;6.88;5.47;;;;;;;15.98;82.05;98522.59;5081681;28;20550;-44
2021/08/07 02:03:08;;;;;;;9.10;5.85;;;;;;;15.98;82.22;98522.59;5085780;28;20466;-44
2021/08/07 02:05:36;;;;;;;8.50;5.32;;;;;;;15.98;82.16;98525.38;5081989;28;20052;-48
2021/08/07 02:08:08;;;;;;;;;;;;;;;15.91;82.78;98522.78;5083518;28;20056;-48
2021/08/07 02:10:36;;;;;;;5.03;4.53;;;;;;;15.91;82.43;98525.56;5081923;28;20007;-44
2021/08/07 02:13:05;;;;;;;6.40;5.03;;;;;;;15.91;82.24;98525.56;5082444;28;20055;-45
2021/08/07 02:15:34;;;;;;;9.13;5.53;;;;;;;15.91;82.40;98522.78;5081524;28;20134;-45
2021/08/07 02:18:01;;;;;;;12.02;6.82;;;;;;;15.91;82.56;98522.78;5083187;28;20068;-46
2021/08/07 02:20:28;;;;;;;6.80;4.90;;;;;;;15.89;82.75;98522.41;5082502;28;20048;-46
2021/08/07 02:22:55;;;;;;;9.10;4.65;;;;;;;15.88;82.63;98523.63;5082881;28;20052;-45
2021/08/07 02:25:23;;;;;;;7.85;4.65;;;;;;;15.89;82.84;98525.19;5081159;28;20051;-49
2021/08/07 02:27:50;;;;;;;9.85;4.70;;;;;;;15.92;82.65;98518.75;5082995;28;20044;-44
2021/08/07 02:30:18;;;;;;;7.72;4.70;;;;;;;15.95;82.75;98529.03;5081714;28;20159;-45
2021/08/07 02:32:46;;;;;;;6.97;4.38;;;;;;;15.95;82.67;98529.03;5082122;28;20397;-43
2021/08/07 02:35:14;;;;;;;7.95;4.70;;;;;;;15.93;82.73;98528.69;5081485;28;20048;-44
2021/08/07 02:37:42;;;;;;;4.45;4.05;;;;;;;15.96;82.82;98524.25;5064884;28;20808;-45
2021/08/07 02:40:12;;;;;;;7.90;4.32;;;;;;;15.97;82.73;98520.22;5082279;28;20059;-46
2021/08/07 02:42:40;;;;;;;8.45;4.20;;;;;;;15.96;82.75;98519.47;5080462;28;20055;-48
2021/08/07 02:45:07;;;;;;;6.35;5.03;;;;;;;15.97;82.49;98529.38;5080808;28;20048;-44
2021/08/07 02:47:37;;;;;;;8.80;4.20;;;;;;;15.96;82.44;98527.81;5080777;28;20123;-46
2021/08/07 02:50:06;;;;;;;7.80;4.22;;;;;;;15.96;82.21;98527.03;5080813;28;20052;-43
2021/08/07 02:52:34;;;;;;;8.23;4.55;;;;;;;15.90;82.61;98537.94;5081670;28;20048;-44
2021/08/07 02:55:03;;;;;;;9.73;3.95;;;;;;;15.90;82.60;98526.78;5082162;28;20044;-43
2021/08/07 02:57:31;;;;;;;4.82;3.95;;;;;;;15.91;82.79;98531.13;5080120;28;20032;-48
2021/08/07 02:59:58;;;;;;;5.65;4.00;;;;;;;15.91;82.73;98522.78;5082323;28;20060;-50
2021/08/07 03:02:26;;;;;;;5.57;4.30;;;;;;;15.89;82.92;98522.41;5082254;28;20129;-43
2021/08/07 03:04:53;;;;;;;11.10;3.70;;;;;;;15.90;82.88;98523.97;5081358;28;20047;-43
2021/08/07 03:07:21;;;;;;;7.85;3.70;;;;;;;15.90;82.82;98521.19;5081911;28;20032;-43
2021/08/07 03:09:48;;;;;;;5.32;4.45;;;;;;;15.84;82.83;98522.91;5081948;28;20555;-42
2021/08/07 03:12:15;;;;;;;5.25;3.83;;;;;;;15.82;83.07;98519.78;5081788;28;20044;-46
2021/08/07 03:14:43;;;;;;;9.65;3.83;;;;;;;15.86;82.86;98519.72;5080911;28;20171;-44
2021/08/07 03:17:10;;;;;;;5.85;4.13;;;;;;;15.83;83.06;98522.13;5082245;28;20040;-43
2021/08/07 03:19:37;;;;;;;7.63;3.95;;;;;;;15.82;83.04;98517.00;5081767;28;20071;-45
2021/08/07 03:22:04;;;;;;;11.32;4.68;;;;;;;15.82;83.13;98525.38;5081892;28;20089;-43
2021/08/07 03:24:30;;;;;;;7.43;4.43;;;;;;;15.79;83.25;98515.06;5081476;28;20040;-43
2021/08/07 03:26:57;;;;;;;9.10;4.28;;;;;;;15.77;83.34;98520.28;5080006;28;20071;-45
2021/08/07 03:29:24;;;;;;;7.05;4.82;;;;;;;15.75;83.28;98519.97;5079825;28;20512;-47
2021/08/07 03:31:51;;;;;;;12.52;4.50;;;;;;;15.76;83.18;98518.72;5080849;28;20401;-43
2021/08/07 03:34:18;;;;;;;9.57;5.57;;;;;;;15.78;83.24;98519.06;5081661;28;20060;-44
2021/08/07 03:36:44;;;;;;;9.38;4.72;;;;;;;15.74;83.46;98513.59;5079528;28;20110;-44
2021/08/07 03:39:11;;;;;;;10.57;5.75;;;;;;;15.76;83.52;98518.72;5080025;28;20075;-43
2021/08/07 03:41:38;;;;;;;13.88;5.53;;;;;;;15.74;83.39;98518.38;5078458;28;20063;-44
2021/08/07 03:44:05;;;;;;;11.70;5.78;;;;;;;15.76;83.40;98515.94;5080174;28;20570;-46
2021/08/07 03:46:32;;;;;;;14.18;5.15;;;;;;;15.78;83.52;98530.22;5078625;28;20808;-43
2021/08/07 03:48:58;;;;;;;19.77;6.68;;;;;;;15.81;83.22;98518.19;5082062;28;20040;-43
2021/08/07 03:51:25;;;;;;;12.38;4.97;;;;;;;15.86;83.18;98520.47;5080185;28;20118;-47
2021/08/07 03:53:53;;;;;;;13.68;6.40;;;;;;;15.86;83.04;98523.25;5080859;28;20105;-42
2021/08/07 03:56:20;;;;;;;10.38;5.70;;;;;;;15.84;83.36;98523.69;5081060;28;20049;-43
2021/08/07 03:58:47;;;;;;;13.32;5.93;;;;;;;15.83;83.35;98526.94;5078616;28;20131;-44
2021/08/07 04:01:15;;;;;;;13.57;6.38;;;;;;;15.83;83.36;98533.28;5080107;28;20040;-45
2021/08/07 04:03:42;;;;;;;23.67;7.68;;;;;;;15.84;83.32;98523.69;5080280;28;20044;-43
2021/08/07 04:06:25;;;;;;;10.20;5.57;;;;;;;15.84;83.12;98514.53;5079293;28;20406;-45
2021/08/07 04:08:52;;;;;;;10.18;5.25;;;;;;;15.85;83.16;98518.91;5080227;28;20655;-43
2021/08/07 04:11:20;;;;;;;9.70;6.28;;;;;;;15.81;83.37;98521.78;5080677;28;20078;-44
2021/08/07 04:13:46;;;;;;;11.75;6.22;;;;;;;15.83;83.24;98515.78;5079515;28;20464;-43
2021/08/07 04:16:13;;;;;;;8.82;6.30;;;;;;;15.83;83.21;98521.38;5079864;28;20054;-45
2021/08/07 04:18:40;;;;;;;12.80;6.72;;;;;;;15.80;83.28;98525.81;5080869;28;20408;-43
2021/08/07 04:21:07;;;;;;;12.02;6.25;;;;;;;15.78;83.36;98521.84;5078167;28;20122;-48
2021/08/07 04:23:35;;;;;;;17.08;6.60;;;;;;;15.78;83.30;98521.84;5080157;28;20047;-43
2021/08/07 04:26:02;;;;;;;14.35;6.55;;;;;;;15.76;83.53;98527.88;5079503;28;20044;-45
2021/08/07 04:28:28;;;;;;;11.55;6.75;;;;;;;15.72;83.44;98531.97;5080470;28;20052;-46
2021/08/07 04:30:55;;;;;;;16.45;7.07;;;;;;;15.67;83.73;98524.13;5078324;28;20130;-46
2021/08/07 04:33:22;;;;;;;19.02;7.80;;;;;;;15.61;84.33;98523.06;5080139;28;20048;-43
2021/08/07 04:35:50;;;;;;;15.40;7.40;;;;;;;15.60;84.31;98532.63;5078985;28;20409;-45
2021/08/07 04:38:19;;;;;;;12.15;7.75;;;;;;;15.64;84.36;98525.78;5079576;28;20054;-46
2021/08/07 04:40:46;;;;;;;11.73;6.80;;;;;;;15.63;84.50;98532.56;5077673;28;20044;-45
2021/08/07 04:43:13;;;;;;;15.10;6.82;;;;;;;15.60;84.71;98518.69;5079120;28;20432;-44
2021/08/07 04:45:39;;;;;;;13.02;6.45;;;;;;;15.57;84.87;98530.69;5079416;28;20050;-41
2021/08/07 04:48:07;;;;;;;10.20;6.30;;;;;;;15.54;84.86;98537.16;5078858;28;20040;-49
2021/08/07 04:50:35;;;;;;;11.68;6.38;;;;;;;15.53;84.98;98535.59;5078977;28;20150;-44
2021/08/07 04:53:04;;;;;;;12.80;6.90;;;;;;;15.50;85.14;98539.22;5077968;28;20059;-42
2021/08/07 04:55:33;;;;;;;10.02;6.90;;;;;;;15.53;84.84;98527.22;5078226;28;20101;-42
2021/08/07 04:58:00;;;;;;;11.18;6.60;;;;;;;15.48;85.06;98538.88;5080214;28;20524;-43
2021/08/07 05:00:27;;;;;;;10.18;7.28;;;;;;;15.43;85.29;98531.78;5080158;28;20117;-42
2021/08/07 05:02:54;;;;;;;10.93;6.60;;;;;;;15.46;85.17;98541.31;5079682;28;20056;-50
2021/08/07 05:05:21;;;;;;;9.32;6.85;;;;;;;15.50;85.18;98530.88;5078888;28;20058;-51
2021/08/07 05:07:48;;;;;;;10.68;6.90;;;;;;;15.50;85.09;98536.44;5078187;28;20502;-44
2021/08/07 05:10:16;;;;;;;13.05;7.53;;;;;;;15.50;85.05;98536.44;5079190;28;20066;-47
2021/08/07 05:12:44;;;;;;;11.48;7.05;;;;;;;15.51;85.16;98543.59;5079929;28;20587;-44
2021/08/07 05:15:11;;;;;;;14.50;7.05;;;;;;;15.54;85.13;98542.75;5060852;28;20067;-44
2021/08/07 05:17:38;;;;;;;9.98;6.85;;;;;;;15.49;85.37;98540.47;5079308;28;20160;-44
2021/08/07 05:20:06;;;;;;;13.35;7.90;;;;;;;15.46;85.51;98552.47;5080309;28;20040;-43
2021/08/07 05:22:33;;;;;;;9.93;7.30;;;;;;;15.42;85.80;98546.94;5078604;28;20036;-44
2021/08/07 05:25:00;;;;;;;10.60;6.97;;;;;;;15.49;85.56;98548.84;5079833;28;20060;-43
2021/08/07 05:27:27;;;;;;;11.40;6.85;;;;;;;15.45;85.35;98546.09;5082724;28;20063;-47
2021/08/07 05:29:54;;;;;;;10.73;6.55;;;;;;;15.50;85.63;98551.19;5083470;28;20059;-43
2021/08/07 05:32:21;;;;;;;13.63;7.97;;;;;;;15.47;85.35;98552.03;5080830;28;20079;-43
2021/08/07 05:34:49;;;;;;;10.15;7.07;;;;;;;15.48;85.37;98553.63;5083297;28;20052;-44
2021/08/07 05:37:15;;;;;;;20.20;8.23;;;;;;;15.49;85.30;98562.78;5081131;28;20063;-44
2021/08/07 05:39:43;;;;;;;10.38;7.75;;;;;;;15.48;85.32;98556.41;5082240;28;20792;-43
2021/08/07 05:42:10;;;;;;;10.50;7.30;;;;;;;15.42;85.57;98558.09;5083350;28;20443;-47
2021/08/07 05:44:37;;;;;;;12.18;7.75;;;;;;;15.38;85.60;98567.75;5083714;28;20059;-46
2021/08/07 05:47:04;;;;;;;16.70;8.65;;;;;;;15.35;85.77;98557.47;5081739;28;20330;-45
2021/08/07 05:49:31;;;;;;;13.10;8.70;;;;;;;15.34;85.77;98562.25;5083364;28;20039;-46
2021/08/07 05:51:58;;;;;;;12.38;8.00;;;;;;;15.35;85.70;98557.47;5081509;28;20777;-46
2021/08/07 05:54:25;;;;;;;15.35;8.98;;;;;;;15.36;85.71;98559.00;5083739;28;20036;-43
2021/08/07 05:56:52;;;;;;;11.02;8.25;;;;;;;15.32;85.84;98555.53;5081960;28;20046;-42
2021/08/07 05:59:18;;;;;;;17.83;8.07;;;;;;;15.27;85.94;98572.75;5083528;28;20040;-44
2021/08/07 06:01:45;;;;;;;12.88;8.45;;;;;;;15.21;86.22;98564.91;5082097;28;20044;-42
2021/08/07 06:04:14;;;;;;;15.00;7.75;;;;;;;15.26;86.10;98571.97;5065761;28;20036;-43
2021/08/07 06:06:40;;;;;;;14.68;8.27;;;;;;;15.29;85.88;98565.53;5079782;28;20066;-47
2021/08/07 06:09:07;;;;;;;14.55;8.32;;;;;;;15.28;85.97;98569.53;5065206;28;20070;-51
2021/08/07 06:11:34;;;;;;;13.63;8.07;;;;;;;15.27;86.06;98567.19;5082619;28;20044;-47
2021/08/07 06:14:00;;;;;;;11.57;8.88;;;;;;;15.29;85.85;98565.53;5083404;28;20098;-47
2021/08/07 06:16:27;;;;;;;15.30;8.55;;;;;;;15.32;85.98;98572.25;5080246;28;20040;-45
2021/08/07 06:18:54;;;;;;;15.15;8.18;;;;;;;15.33;86.03;98576.63;5080775;28;20204;-51
2021/08/07 06:21:21;;;;;;;12.38;7.55;;;;;;;15.33;86.26;98565.47;5082765;28;20044;-49
2021/08/07 06:23:48;;;;;;;18.25;8.40;;;;;;;15.35;86.21;98568.63;5081767;28;20044;-47
2021/08/07 06:26:16;;;;;;;21.20;10.77;;;;;;;15.38;86.17;98574.09;5081827;28;20040;-42
2021/08/07 06:28:43;;;;;;;15.98;8.73;;;;;;;15.33;86.15;98560.66;5081320;28;20055;-44
2021/08/07 06:31:10;;;;;;;14.20;8.77;;;;;;;15.33;86.31;98559.91;5080925;28;20438;-43
2021/08/07 06:33:37;;;;;;;15.35;8.23;;;;;;;15.34;86.38;98561.44;5082118;28;20083;-43
2021/08/07 06:36:05;;;;;;;15.20;8.13;;;;;;;15.37;86.16;98568.97;5079577;28;20140;-50
2021/08/07 06:38:32;;;;;;;13.15;7.25;;;;;;;15.38;86.11;98567.75;5081933;28;20051;-44
2021/08/07 06:40:59;;;;;;;14.70;7.47;;;;;;;15.41;86.01;98567.66;5063750;28;21010;-44
2021/08/07 06:43:26;;;;;;;21.70;10.05;;;;;;;15.40;85.80;98568.09;5082030;28;20040;-47
2021/08/07 06:45:54;;;;;;;17.17;8.68;;;;;;;15.43;86.02;98575.63;5080091;28;20050;-49
2021/08/07 06:48:22;;;;;;;16.83;8.55;;;;;;;15.41;85.95;98566.91;5081821;28;20046;-44
2021/08/07 06:50:49;;;;;;;17.45;8.27;;;;;;;15.39;86.08;98563.72;5061559;28;20048;-45
2021/08/07 06:53:17;;;;;;;16.77;7.72;;;;;;;15.43;86.00;98575.63;5080958;28;20084;-43
2021/08/07 06:55:45;;;;;;;25.35;9.07;;;;;;;15.42;85.90;98574.03;5074078;28;20048;-43
2021/08/07 06:58:12;;;;;;;17.30;9.18;;;;;;;15.43;85.94;98578.41;5079645;28;20059;-49
2021/08/07 07:00:39;;;;;;;14.02;9.55;;;;;;;15.44;85.88;98586.31;5079767;28;20056;-45
2021/08/07 07:03:07;;;;;;;14.57;7.80;;;;;;;15.43;86.13;98581.97;5080990;28;20048;-43
2021/08/07 07:05:34;;;;;;;16.00;7.80;;;;;;;15.46;85.95;98588.72;5077543;28;20052;-48
2021/08/07 07:08:01;;;;;;;15.77;8.45;;;;;;;15.46;85.85;98588.72;5078309;28;20048;-43
2021/08/07 07:10:29;;;;;;;15.50;7.80;;;;;;;15.48;85.85;98587.09;5081033;28;20052;-46
2021/08/07 07:12:56;;;;;;;18.17;8.45;;;;;;;15.51;85.80;98588.22;5079242;28;20047;-49
2021/08/07 07:15:24;;;;;;;17.92;8.52;;;;;;;15.56;85.81;98596.09;5079428;28;20044;-45
2021/08/07 07:17:51;;;;;;;15.52;8.40;;;;;;;15.59;85.95;98590.44;5078590;28;20047;-43
2021/08/07 07:20:21;;;;;;;16.42;7.70;;;;;;;15.65;85.81;98599.06;5078380;28;20064;-48
2021/08/07 07:22:48;;;;;;;15.88;7.45;;;;;;;15.66;86.17;98593.06;5077997;28;20042;-44
2021/08/07 07:25:16;;;;;;;11.93;7.80;;;;;;;15.70;85.86;98593.00;5077384;28;20054;-48
2021/08/07 07:27:44;;;;;;;17.92;7.22;;;;;;;15.72;85.54;98604.50;5079699;28;20048;-47
2021/08/07 07:30:13;;;;;;;16.35;7.63;;;;;;;15.72;85.50;98604.50;5079037;28;20817;-44
2021/08/07 07:32:41;;;;;;;13.15;6.95;;;;;;;15.73;85.35;98606.06;5078144;28;20044;-49
2021/08/07 07:35:08;;;;;;;15.50;7.43;;;;;;;15.73;85.18;98604.06;5078124;28;20048;-44
2021/08/07 07:37:35;;;;;;;15.15;6.93;;;;;;;15.73;85.35;98611.66;5079211;28;20129;-44
2021/08/07 07:40:04;;;;;;;13.80;6.75;;;;;;;15.72;85.19;98607.31;5080489;28;20574;-44
2021/08/07 07:42:30;;;;;;;12.40;7.72;;;;;;;15.73;85.23;98612.44;5080074;28;20040;-45
2021/08/07 07:44:57;;;;;;;12.10;6.00;;;;;;;15.77;85.07;98613.16;5079428;28;20050;-44
2021/08/07 07:47:24;;;;;;;14.23;7.07;;;;;;;15.72;84.93;98605.31;5060847;28;20044;-44
2021/08/07 07:49:51;;;;;;;13.68;6.68;;;;;;;15.74;85.10;98604.84;5079801;28;20040;-45
2021/08/07 07:52:18;;;;;;;10.40;5.88;;;;;;;15.73;85.04;98608.84;5079967;28;20507;-43
2021/08/07 07:54:44;;;;;;;10.13;5.95;;;;;;;15.78;84.84;98608.34;5080633;28;20688;-44
2021/08/07 07:57:12;;;;;;;9.00;5.32;;;;;;;15.82;84.79;98606.28;5062407;28;20048;-43
2021/08/07 07:59:39;;;;;;;10.65;6.25;;;;;;;15.96;85.20;98603.19;5079363;28;20059;-46
2021/08/07 08:02:06;;;;;;;12.55;4.80;;;;;;;16.26;85.68;98594.47;5079372;28;20485;-45
2021/08/07 08:04:33;;;;;;;14.35;5.93;;;;;;;16.58;85.58;98613.28;5079399;28;20044;-45
2021/08/07 08:07:01;;;;;;;9.18;4.45;;;;;;;16.86;85.91;98603.41;5080283;28;20520;-50
2021/08/07 08:09:28;;;;;;;7.78;5.07;;;;;;;17.19;86.37;98604.91;5079885;28;20051;-47
2021/08/07 08:11:55;;;;;;;9.10;4.60;;;;;;;17.39;85.63;98607.56;5078363;28;20055;-46
2021/08/07 08:14:22;;;;;;;9.25;4.38;;;;;;;17.51;84.27;98601.97;5079410;28;20555;-46
2021/08/07 08:16:50;;;;;;;9.63;4.25;;;;;;;17.46;82.70;98602.53;5079422;28;20201;-47
2021/08/07 08:19:18;;;;;;;5.60;4.20;;;;;;;17.34;81.67;98594.88;5078553;28;20564;-49
2021/08/07 08:21:46;;;;;;;8.40;3.30;;;;;;;17.38;81.55;98601.16;5079874;28;20075;-43
2021/08/07 08:24:12;;;;;;;8.57;3.38;;;;;;;17.46;80.80;98602.53;5081970;28;20131;-46
2021/08/07 08:26:40;;;;;;;7.20;3.03;;;;;;;17.34;79.92;98600.47;5080170;28;20039;-43
2021/08/07 08:29:08;;;;;;;6.97;3.63;;;;;;;17.30;79.74;98596.22;5079588;28;20044;-46
2021/08/07 08:31:35;;;;;;;6.32;3.25;;;;;;;17.27;79.41;98603.47;5080874;28;20048;-49
2021/08/07 08:34:02;;;;;;;4.65;3.30;;;;;;;17.24;79.58;98607.16;5080534;28;20059;-43
2021/08/07 08:36:29;;;;;;;8.90;2.92;;;;;;;17.24;79.43;98604.34;5079319;28;20079;-43
2021/08/07 08:38:55;;;;;;;4.85;3.13;;;;;;;17.35;79.29;98607.63;5080591;28;20051;-45
2021/08/07 08:41:23;;;;;;;6.90;3.78;;;;;;;17.45;78.93;98609.34;5080509;28;20054;-43
2021/08/07 08:43:51;;;;;;;6.00;2.78;;;;;;;17.62;78.74;98608.09;5079013;28;20436;-43
2021/08/07 08:46:20;;;;;;;3.83;2.35;;;;;;;18.07;78.26;98601.53;5079505;28;20097;-43
2021/08/07 08:48:48;;;;;;;5.45;2.90;;;;;;;18.71;77.70;98603.88;5079882;28;20347;-45
2021/08/07 08:51:18;;;;;;;10.00;3.28;;;;;;;19.23;76.94;98600.47;5078731;28;20056;-51
2021/08/07 08:53:45;;;;;;;7.05;2.95;;;;;;;19.97;75.71;98599.72;5062357;28;20040;-48
2021/08/07 08:56:12;;;;;;;6.35;3.22;;;;;;;20.53;73.78;98593.91;5078174;28;20054;-44
2021/08/07 08:58:40;;;;;;;5.18;2.42;;;;;;;20.83;72.17;98590.22;5078862;28;20055;-50
2021/08/07 09:01:10;;;;;;;3.47;2.63;;;;;;;21.18;69.72;98593.59;5084442;28;20402;-45
2021/08/07 09:03:37;;;;;;;8.48;3.08;;;;;;;21.08;69.51;98592.00;5082291;28;20052;-43
2021/08/07 09:06:06;;;;;;;5.05;2.55;;;;;;;21.25;68.66;98596.06;5084513;28;20073;-43
2021/08/07 09:08:33;;;;;;;6.88;2.50;;;;;;;21.02;67.58;98600.25;5082638;28;20055;-43
2021/08/07 09:11:19;;;;;;;6.72;2.20;;;;;;;20.46;66.12;98597.00;5081965;28;21044;-43
2021/08/07 09:13:46;;;;;;;5.35;2.35;;;;;;;20.08;67.11;98611.34;5081418;28;20048;-43
2021/08/07 09:16:15;;;;;;;6.38;2.42;;;;;;;19.61;66.99;98602.34;5083212;28;20050;-48
2021/08/07 09:18:42;;;;;;;5.13;2.72;;;;;;;19.28;67.71;98599.09;5082566;28;20043;-45
2021/08/07 09:21:15;;;;;;;6.93;2.47;;;;;;;19.06;67.05;98599.06;5083137;28;20491;-45
2021/08/07 09:23:47;;;;;;;6.22;2.65;;;;;;;18.91;68.04;98592.38;5082620;28;20494;-45
2021/08/07 09:26:19;;;;;;;9.85;3.00;;;;;;;18.77;68.16;98596.44;5083219;28;20044;-48
2021/08/07 09:28:48;;;;;;;8.70;3.00;;;;;;;18.65;68.92;98591.66;5081122;28;21528;-43
2021/08/07 09:31:16;;;;;;;9.38;3.10;;;;;;;18.52;69.38;98582.50;5082394;28;20044;-46
2021/08/07 09:33:43;;;;;;;4.95;2.40;;;;;;;18.50;69.32;98579.38;5081337;28;20440;-43
2021/08/07 09:36:11;;;;;;;5.53;2.60;;;;;;;18.54;69.46;98573.63;5081618;28;20133;-46
2021/08/07 09:38:46;;;;;;;8.07;2.53;;;;;;;18.76;69.05;98589.31;5081955;28;20422;-46
2021/08/07 09:41:13;;;;;;;6.32;2.70;;;;;;;18.86;69.14;98578.94;5082574;28;20051;-44
2021/08/07 09:43:39;;;;;;;6.68;2.38;;;;;;;18.80;68.98;98575.13;5081866;28;20075;-44
2021/08/07 09:46:13;;;;;;;6.82;2.38;;;;;;;18.59;68.56;98573.06;5079716;28;20067;-44
2021/08/07 09:48:43;;;;;;;3.28;2.40;;;;;;;18.43;68.60;98573.16;5080051;28;20953;-43
2021/08/07 09:51:18;;;;;;;4.85;2.10;;;;;;;18.23;68.94;98587.44;5080844;28;20052;-43
2021/08/07 09:54:00;;;;;;;2.42;1.63;;;;;;;18.02;69.25;98590.91;5081084;28;20044;-49
2021/08/07 09:56:26;;;;;;;5.97;1.90;;;;;;;17.82;69.64;98576.34;5082841;28;20740;-45
2021/08/07 09:59:06;;;;;;;5.20;1.75;;;;;;;17.54;70.66;98589.16;5082471;28;20058;-43
2021/08/07 10:01:35;;;;;;;5.28;2.42;;;;;;;17.45;70.81;98589.75;5081623;28;20048;-44
2021/08/07 10:04:04;;;;;;;3.42;2.38;;;;;;;17.37;71.19;98570.81;5082230;28;20054;-43
2021/08/07 10:06:33;;;;;;;4.07;1.67;;;;;;;17.30;71.74;98574.63;5081161;28;20130;-43
2021/08/07 10:08:59;;;;;;;5.75;3.63;;;;;;;17.18;72.55;98580.97;5082054;28;20544;-44
2021/08/07 10:11:26;;;;;;;3.80;1.83;;;;;;;17.05;73.02;98591.28;5079389;28;20077;-45
2021/08/07 10:13:53;;;;;;;3.30;2.22;;;;;;;16.81;73.95;98578.78;5081159;28;20126;-43
2021/08/07 10:16:21;;;;;;;4.22;2.53;;;;;;;16.69;74.43;98599.03;5080934;28;20125;-43
2021/08/07 10:18:49;;;;;;;4.50;1.90;;;;;;;16.51;75.09;98584.72;5081428;28;20055;-44
2021/08/07 10:21:16;;;;;;;4.68;1.77;;;;;;;16.43;75.48;98582.09;5080847;28;20194;-45
2021/08/07 10:23:43;;;;;;;2.30;1.52;;;;;;;16.34;75.80;98581.13;5081079;28;20068;-42
2021/08/07 10:26:16;;;;;;;2.42;1.80;;;;;;;16.17;77.02;98585.94;5081760;28;20783;-45
2021/08/07 10:28:47;;;;;;;4.35;2.05;;;;;;;16.09;77.31;98589.31;5081949;28;20055;-42
2021/08/07 10:31:18;;;;;;;3.63;1.40;;;;;;;16.00;77.05;98570.38;5080340;28;20062;-44
2021/08/07 10:33:46;;;;;;;;;;;;;;;15.86;78.86;98587.44;5078537;28;20087;-47
2021/08/07 10:36:14;;;;;;;3.75;1.65;;;;;;;15.77;77.92;98584.47;5079612;28;19978;-43
2021/08/07 10:38:41;;;;;;;4.68;2.10;;;;;;;15.76;78.26;98586.47;5079929;28;20056;-46
2021/08/07 10:41:09;;;;;;;4.03;1.95;;;;;;;15.78;78.61;98597.19;5081263;28;20063;-44
2021/08/07 10:43:38;;;;;;;2.08;1.77;;;;;;;15.75;78.98;98589.69;5080242;28;20779;-45
2021/08/07 10:46:07;;;;;;;7.60;2.53;;;;;;;15.81;79.24;98596.31;5080894;28;20051;-47
2021/08/07 10:48:45;;;;;;;2.20;1.88;;;;;;;15.80;79.29;98589.97;5081012;28;20048;-44
2021/08/07 10:51:24;;;;;;;4.03;1.83;;;;;;;15.73;80.12;98590.13;5081854;28;20081;-44
2021/08/07 10:53:55;;;;;;;2.33;1.30;;;;;;;15.68;79.71;98592.63;5079433;28;20044;-43
2021/08/07 10:56:31;;;;;;;3.45;1.75;;;;;;;15.63;81.07;98585.56;5080895;28;20075;-46
2021/08/07 10:59:16;;;;;;;3.45;1.52;;;;;;;15.66;81.39;98589.50;5079718;28;20139;-46
2021/08/07 11:01:44;;;;;;;2.40;1.60;;;;;;;15.68;80.41;98593.41;5080475;28;20129;-52
2021/08/07 11:04:17;;;;;;;1.67;1.33;;;;;;;15.80;80.48;98591.97;5079784;28;20048;-46
2021/08/07 11:06:49;;;;;;;3.65;1.40;;;;;;;15.79;80.33;98593.19;5079413;28;20044;-45
2021/08/07 11:09:21;;;;;;;4.45;1.50;;;;;;;15.76;80.80;98596.84;5079062;28;20511;-42
2021/08/07 11:12:10;;;;;;;9.25;2.20;;;;;;;15.71;80.83;98591.75;5078401;28;20093;-47
2021/08/07 11:14:40;;;;;;;5.50;1.23;;;;;;;15.72;81.07;98593.34;5079147;28;20172;-50
2021/08/07 11:17:06;;;;;;;1.60;1.30;;;;;;;15.75;80.78;98589.69;5078084;28;20050;-45
2021/08/07 11:19:48;;;;;;;2.97;1.38;;;;;;;15.68;81.67;98592.63;5080370;28;20056;-49
2021/08/07 11:22:31;;;;;;;1.83;1.30;;;;;;;15.60;81.45;98596.78;5079249;28;20136;-43
2021/08/07 11:24:59;;;;;;;5.47;1.50;;;;;;;15.54;81.60;98604.09;5080081;28;20042;-49
2021/08/07 11:30:18;;;;;;;5.65;1.58;;;;;;;15.54;82.20;98592.94;5078275;28;20186;-44
2021/08/07 11:32:57;;;;;;;7.07;2.75;;;;;;;15.60;82.65;98594.00;5079147;28;20143;-48
2021/08/07 11:35:37;;;;;;;2.50;1.80;;;;;;;15.65;82.54;98599.84;5078083;28;20044;-46
2021/08/07 11:38:12;;;;;;;4.07;2.05;;;;;;;15.66;82.05;98592.28;5077572;28;20044;-48
2021/08/07 11:40:41;;;;;;;3.90;1.65;;;;;;;15.63;82.34;98596.72;5078751;28;20138;-44
2021/08/07 11:43:18;;;;;;;5.88;2.42;;;;;;;15.59;82.83;98606.38;5078341;28;20092;-51